Camp Douglas, WI (54637)

08:38 CDT le 28 septembre 2016 (GMT -0500)
In Town | | Change Station
Avis météorologiques actifs: Flood Warning Préavis actif: Public Information Statement

Alt. 909 ft 43.88 °N, 90.17 °W | Updated 33 seconds ago

Mostly Cloudy
Nuageux
52.8 ° F
Paraît 52.8 ° F
N
2.0
Vent Variable Vent de ENE

Aujourd'hui
Haut(e) -- | Bas -- ° F
--% Risque de précip.
Hier
Haut(e) -- | Bas -- ° F
Precip. -- pouce
Pression 29.94 pouce
Visibilité 10.0 Miles terrestres
Nuages Nuageux 800 ft
Point de rosée 50 ° F
Humidité 91%
Précipitations 0.00 pouce
Profondeur de la couche neigeuse Non disponible.
6:55 AM 6:46 PM
Lune descendante, 6% visible
METAR KVOK 281258Z 32008KT 10SM BKN008 11/10 A2992 RMK AO2A SLP138
Pression 29.94 pouce
Visibilité 10.0 Miles terrestres
Nuages Nuageux 800 ft
Point de rosée 50 ° F
Humidité 91%
Précipitations 0.00 pouce
Profondeur de la couche neigeuse Non disponible.
6:55 AM 6:46 PM
Lune descendante, 6% visible
METAR KVOK 281258Z 32008KT 10SM BKN008 11/10 A2992 RMK AO2A SLP138

10-Day Weather Forecast

Almanac

Astronomie

Sep. 28, 2016 Lever Coucher
Temps réel
Crépuscule civil
Crépuscule nautique
Crépuscule astronomique
Lune
Durée de lumière visible
Longueur du jour
Tomorrow will be .
, % of the Moon is Illuminated

Extrêmes aujourd'hui

State Highs State Lows

Community

WunderPhotos

Upload Photos

1,942,259 Photos téléchargées !

WunderBlog® & News

Nearby

Qualité de l'air

  Qualité de l'air Indice de la qualité de l'air Polluant
Not available.

Épaisseur de neige

Station Depth Altitude

Activité sismique

Ville Distance Mag. Time & Date
Minimum magnitude displayed is 2.5.

Températures des eaux côtières

Lieu Température

Stations

Stations météo à proximité

Emplacement de la station Température Refroidissement éolien Point de rosée Humidité Vent Precip. Alt. Mise à jour Type
                   

Watches & Warnings

Flood Warning
Issued: 04:09 CDT Sep. 28, 2016 – National Weather Service

The Flood Warning continues for
the Yellow River at Necedah.
* Until late Thursday night... or until the warning is cancelled.
* At 2:30 am Wednesday the stage was 16.0 feet.
* Flood stage is 15.0 feet.
* Minor flooding is occurring and minor flooding is forecast.
* Forecast... the river will continue to fall... dropping below flood
stage by Thursday morning.


Lat... Lon 4415 9009 4415 9014 4395 9006 4396 9003